In Rescue
 
Open Full Screen Window  High Contrast Mode
Wind Gusting 00 knots
09
June 22, 2024 6:10 PM PDT
Weather Information
Wind Direction
  270 °
Wind Speed
  09 kt (10 mph)
Wind Gust
  00 kt (0 mph)
Altimeter
29.82 in
Visibility
10 SM
Temperature
25° C
77° F
Dewpoint
09° C
48° F
Humidity
36%
Sky Condition
Clear
VFR

METAR KCVH 230110Z AUTO 27009KT 10SM CLR 25/09 A2982 RMK A01

FAA Disclaimer: The data displayed is for advisory purposes only and is not to be used for flight planning or operations.